Time;durP1;ratioP1;P1;durP2;ratioP2;P2;SDS_P1;SDS_P2;PMS_P1;PMS_P2;Temp;Humidity;BMP_temperature;BMP_pressure;BME280_temperature;BME280_humidity;BME280_pressure;Samples;Min_cycle;Max_cycle;Signal;HPM_P1;HPM_P2
2022/09/13 00:00:12;;;;;;;7.72;5.57;;;;;;;17.15;57.55;99857.38;10120612;29;20052;-78
2022/09/13 00:05:15;;;;;;;9.02;6.10;;;;;;;17.18;57.16;99855.13;10132518;29;20048;-79
2022/09/13 00:10:19;;;;;;;5.63;4.95;;;;;;;17.21;57.27;99860.19;10116725;29;20072;-78
2022/09/13 00:15:22;;;;;;;5.40;4.90;;;;;;;17.26;56.97;99870.53;10140578;29;20071;-78
2022/09/13 00:20:25;;;;;;;5.05;4.55;;;;;;;17.29;56.85;99859.31;10113323;29;20079;-78
2022/09/13 00:25:30;;;;;;;5.65;4.28;;;;;;;17.35;56.44;99852.31;10151972;29;20056;-78
2022/09/13 00:30:33;;;;;;;5.38;4.75;;;;;;;17.39;55.82;99838.19;10157749;29;20092;-78
2022/09/13 00:35:35;;;;;;;4.78;4.30;;;;;;;17.41;55.48;99835.28;10139680;29;20456;-78
2022/09/13 00:40:40;;;;;;;7.07;4.82;;;;;;;17.50;55.04;99833.34;10122206;29;20045;-78
2022/09/13 00:45:43;;;;;;;4.75;3.97;;;;;;;17.48;55.10;99826.22;10135991;29;20089;-78
2022/09/13 00:50:51;;;;;;;4.60;4.20;;;;;;;17.66;54.76;99814.19;10142519;29;20044;-78
2022/09/13 00:56:00;;;;;;;5.15;4.45;;;;;;;17.73;54.72;99815.16;10128234;29;20096;-78
2022/09/13 01:01:06;;;;;;;5.53;4.38;;;;;;;17.68;54.87;99815.69;10139494;29;20096;-79
2022/09/13 01:06:12;;;;;;;4.70;4.20;;;;;;;17.68;54.68;99806.69;10139915;29;20140;-78
2022/09/13 01:11:23;;;;;;;6.28;4.40;;;;;;;17.75;54.36;99788.66;10121914;29;20100;-78
2022/09/13 01:16:26;;;;;;;4.88;4.38;;;;;;;17.75;54.34;99788.66;10144232;29;20522;-78
2022/09/13 01:22:06;;;;;;;6.15;4.30;;;;;;;17.82;54.19;99780.59;10160573;29;20064;-78
2022/09/13 01:27:32;;;;;;;5.90;4.43;;;;;;;17.76;54.27;99774.03;10120672;29;20053;-78
2022/09/13 01:33:01;;;;;;;4.35;4.05;;;;;;;17.94;54.21;99773.69;10133419;29;20041;-78
2022/09/13 01:38:09;;;;;;;4.93;4.18;;;;;;;18.00;54.51;99775.66;10112858;29;20056;-77
2022/09/13 01:43:27;;;;;;;5.15;4.40;;;;;;;17.83;55.11;99777.69;10126889;29;20079;-80
2022/09/13 01:48:42;;;;;;;6.38;4.63;;;;;;;17.90;54.82;99764.19;10123259;29;20048;-78
2022/09/13 01:53:52;;;;;;;6.47;4.75;;;;;;;18.01;54.63;99766.47;10140877;29;20080;-79
2022/09/13 01:58:59;;;;;;;4.97;4.30;;;;;;;17.99;54.68;99773.13;10126398;29;20064;-78
2022/09/13 02:04:09;;;;;;;5.30;4.43;;;;;;;17.99;54.60;99767.69;10135538;29;20390;-80
2022/09/13 02:09:16;;;;;;;4.60;4.15;;;;;;;18.07;54.69;99778.47;10131583;29;20063;-78
2022/09/13 02:14:28;;;;;;;4.60;4.20;;;;;;;18.00;55.07;99778.38;10129626;29;20113;-80
2022/09/13 02:19:36;;;;;;;8.95;4.78;;;;;;;17.97;55.05;99777.91;10132823;29;20057;-79
2022/09/13 02:24:42;;;;;;;5.03;4.53;;;;;;;17.85;55.61;99781.09;10139793;29;20088;-79
2022/09/13 02:29:49;;;;;;;6.97;4.25;;;;;;;17.83;57.52;99782.28;10108177;29;20060;-78
2022/09/13 02:34:58;;;;;;;6.22;4.95;;;;;;;17.57;59.46;99782.72;10166626;23;20080;-79
2022/09/13 02:40:04;;;;;;;5.10;4.13;;;;;;;17.46;61.65;99776.69;10175555;29;20387;-80
2022/09/13 02:45:09;;;;;;;5.43;4.93;;;;;;;17.43;62.90;99776.22;10187199;29;20050;-80
2022/09/13 02:50:29;;;;;;;7.70;5.13;;;;;;;17.37;61.57;99761.53;10206633;29;20111;-80
2022/09/13 02:55:42;;;;;;;6.10;5.15;;;;;;;17.34;60.50;99759.19;10180277;29;20051;-79
2022/09/13 03:00:46;;;;;;;5.03;4.53;;;;;;;17.25;60.57;99762.97;10202272;29;20056;-79
2022/09/13 03:05:50;;;;;;;6.35;4.80;;;;;;;17.24;60.99;99764.84;10205744;29;20051;-80
2022/09/13 03:11:04;;;;;;;5.93;4.60;;;;;;;17.27;60.54;99752.78;10214774;29;20051;-80
2022/09/13 03:16:31;;;;;;;5.47;4.63;;;;;;;17.39;61.50;99745.91;10184199;29;20520;-79
2022/09/13 03:21:47;;;;;;;6.53;4.82;;;;;;;17.48;62.12;99750.22;10207986;29;20120;-80
2022/09/13 03:27:04;;;;;;;5.30;4.78;;;;;;;17.52;59.87;99749.84;10197019;29;20051;-79
2022/09/13 03:32:24;;;;;;;6.55;5.50;;;;;;;17.60;61.73;99758.75;10204506;29;20680;-78
2022/09/13 03:37:34;;;;;;;7.30;6.10;;;;;;;17.53;63.95;99759.69;10204207;29;20107;-78
2022/09/13 03:42:43;;;;;;;5.57;4.82;;;;;;;17.33;64.34;99752.03;10198729;29;20717;-78
2022/09/13 03:47:49;;;;;;;7.32;5.63;;;;;;;17.23;64.76;99741.47;10207599;29;20048;-78
2022/09/13 03:52:59;;;;;;;7.25;5.10;;;;;;;17.08;65.06;99745.13;10209224;29;20059;-78
2022/09/13 03:58:01;;;;;;;8.73;5.68;;;;;;;17.01;65.59;99750.44;10205310;29;20090;-78
2022/09/13 04:03:04;;;;;;;6.90;6.30;;;;;;;16.90;65.80;99735.44;10186627;29;20043;-78
2022/09/13 04:08:08;;;;;;;6.45;5.45;;;;;;;16.87;65.93;99745.81;10212692;29;20043;-78
2022/09/13 04:13:11;;;;;;;9.52;6.22;;;;;;;16.89;66.13;99746.44;10220999;29;20091;-78
2022/09/13 04:18:14;;;;;;;10.27;7.10;;;;;;;16.87;66.14;99748.53;10208510;29;20044;-78
2022/09/13 04:23:18;;;;;;;8.30;6.68;;;;;;;16.93;66.30;99764.06;10214157;29;20239;-78
2022/09/13 04:28:22;;;;;;;8.52;6.38;;;;;;;16.93;66.00;99761.34;10202329;29;20067;-78
2022/09/13 04:33:24;;;;;;;7.85;6.82;;;;;;;16.97;66.10;99755.38;10204063;29;20417;-79
2022/09/13 04:38:30;;;;;;;7.57;6.40;;;;;;;17.00;65.30;99759.59;10218606;29;20076;-77
2022/09/13 04:43:33;;;;;;;8.23;6.25;;;;;;;16.96;65.70;99759.13;10202983;29;20052;-78
2022/09/13 04:48:36;;;;;;;8.48;6.35;;;;;;;16.88;65.82;99758.34;10211230;29;20374;-78
2022/09/13 04:53:40;;;;;;;8.02;6.35;;;;;;;16.92;65.95;99755.09;10196363;29;20104;-79
2022/09/13 04:58:43;;;;;;;7.28;6.55;;;;;;;17.01;64.54;99753.16;10187301;29;20150;-78
2022/09/13 05:03:46;;;;;;;7.45;5.80;;;;;;;17.06;63.14;99742.59;10234713;29;20051;-78
2022/09/13 05:08:55;;;;;;;7.07;6.00;;;;;;;17.14;61.64;99742.56;10217285;29;20051;-78
2022/09/13 05:14:00;;;;;;;8.30;6.25;;;;;;;17.19;61.35;99742.00;10214561;29;20370;-78
2022/09/13 05:19:03;;;;;;;10.23;6.82;;;;;;;17.25;61.25;99746.69;10214234;29;20060;-78
2022/09/13 05:24:08;;;;;;;7.25;5.97;;;;;;;17.22;61.06;99734.34;10212005;29;20085;-78
2022/09/13 05:29:11;;;;;;;9.45;6.68;;;;;;;17.24;60.63;99728.72;10207453;29;20059;-79
2022/09/13 05:34:16;;;;;;;7.15;6.20;;;;;;;17.24;60.41;99728.72;10211535;29;20040;-78
2022/09/13 05:39:21;;;;;;;7.72;5.97;;;;;;;17.26;60.28;99737.53;10208509;29;20048;-78
2022/09/13 05:44:44;;;;;;;7.45;5.47;;;;;;;17.23;59.84;99736.03;10213737;29;20514;-78
2022/09/13 05:49:47;;;;;;;5.57;4.97;;;;;;;17.48;59.29;99731.22;10205867;29;20082;-78
2022/09/13 05:55:11;;;;;;;7.07;5.00;;;;;;;17.59;59.22;99726.34;10219861;29;20051;-78
2022/09/13 06:00:15;;;;;;;6.32;5.70;;;;;;;17.73;58.88;99735.53;10205147;29;20086;-77
2022/09/13 06:05:18;;;;;;;8.88;4.65;;;;;;;17.84;58.95;99729.63;10199613;29;20068;-79
2022/09/13 06:10:22;;;;;;;4.82;3.55;;;;;;;18.15;58.66;99732.16;10086178;29;20060;-78
2022/09/13 06:15:25;;;;;;;5.78;4.22;;;;;;;18.39;58.48;99744.59;10190054;29;20505;-79
2022/09/13 06:20:28;;;;;;;5.05;4.55;;;;;;;18.45;58.44;99749.25;10203102;29;20052;-79
2022/09/13 06:25:32;;;;;;;5.82;4.53;;;;;;;18.37;58.09;99752.09;10195680;29;20059;-78
2022/09/13 06:30:35;;;;;;;9.43;5.53;;;;;;;17.99;58.99;99741.38;10209498;29;20413;-78
2022/09/13 06:35:38;;;;;;;7.53;5.80;;;;;;;18.23;58.84;99750.25;10220261;29;20413;-79
2022/09/13 06:40:43;;;;;;;8.02;5.18;;;;;;;18.34;58.44;99756.03;10222065;29;20109;-79
2022/09/13 06:45:46;;;;;;;8.63;5.28;;;;;;;18.40;58.19;99745.44;10226853;29;20997;-79
2022/09/13 06:50:49;;;;;;;8.77;4.90;;;;;;;18.47;58.41;99751.81;10210148;29;20076;-79
2022/09/13 06:56:01;;;;;;;11.45;5.07;;;;;;;18.66;57.85;99750.34;10231143;29;20047;-79
2022/09/13 07:01:12;;;;;;;;;;;;;;;18.24;58.87;99741.91;10230049;29;20139;-79
2022/09/13 07:06:17;;;;;;;9.73;5.20;;;;;;;18.50;58.88;99754.13;10232471;29;19983;-78
2022/09/13 07:11:28;;;;;;;6.43;4.97;;;;;;;19.08;57.37;99741.38;10221842;29;20048;-78
2022/09/13 07:16:33;;;;;;;6.22;5.00;;;;;;;19.28;56.63;99747.00;10225452;29;20052;-80
2022/09/13 07:21:35;;;;;;;8.52;6.15;;;;;;;19.11;57.72;99765.47;10225181;29;20043;-79
2022/09/13 07:26:40;;;;;;;9.90;6.40;;;;;;;19.08;57.50;99754.97;10216962;29;20044;-77
2022/09/13 07:31:44;;;;;;;9.52;6.88;;;;;;;19.30;57.33;99749.53;10219893;29;20387;-79
2022/09/13 07:36:47;;;;;;;12.65;7.50;;;;;;;18.84;58.24;99758.97;10203753;29;20059;-79
2022/09/13 07:41:52;;;;;;;13.48;7.60;;;;;;;19.14;57.83;99766.97;10231495;29;20047;-78
2022/09/13 07:46:55;;;;;;;10.65;7.50;;;;;;;19.02;57.77;99766.66;10200151;29;20052;-78
2022/09/13 07:51:58;;;;;;;9.48;7.85;;;;;;;18.94;58.54;99773.06;10176920;29;20068;-79
2022/09/13 07:57:02;;;;;;;9.52;8.48;;;;;;;18.94;58.10;99783.09;10225387;29;20059;-79
2022/09/13 08:02:05;;;;;;;13.68;9.13;;;;;;;18.59;59.15;99780.19;10215563;29;20044;-78
2022/09/13 08:07:09;;;;;;;14.13;8.45;;;;;;;18.38;59.81;99782.88;10220203;29;20043;-78
2022/09/13 08:12:13;;;;;;;12.85;8.52;;;;;;;18.95;58.11;99790.22;10221291;29;20099;-80
2022/09/13 08:17:16;;;;;;;13.32;8.45;;;;;;;19.23;57.41;99780.25;10221604;29;20052;-79
2022/09/13 08:22:19;;;;;;;14.55;9.23;;;;;;;19.24;57.63;99781.94;10216206;29;20052;-79
2022/09/13 08:27:23;;;;;;;14.02;9.00;;;;;;;19.60;57.45;99781.00;10227219;29;20047;-79
2022/09/13 08:32:26;;;;;;;12.32;8.73;;;;;;;19.59;57.70;99795.69;10221172;29;20044;-79
2022/09/13 08:37:29;;;;;;;14.18;9.85;;;;;;;19.58;57.28;99799.44;10179653;29;20067;-80
2022/09/13 08:42:46;;;;;;;13.00;9.90;;;;;;;19.47;58.28;99808.09;10201168;29;20051;-81
2022/09/13 08:47:53;;;;;;;14.75;10.15;;;;;;;19.36;58.05;99805.91;10221785;29;20063;-80
2022/09/13 08:53:16;;;;;;;12.05;10.57;;;;;;;19.13;58.88;99811.56;10210375;29;20971;-81
2022/09/13 08:58:33;;;;;;;15.48;11.55;;;;;;;19.27;59.62;99812.53;10205951;29;20043;-79
2022/09/13 09:03:43;;;;;;;16.88;11.27;;;;;;;19.45;59.07;99802.03;10205051;29;20052;-80
2022/09/13 09:08:51;;;;;;;19.52;11.50;;;;;;;18.96;59.58;99806.38;10212616;29;20059;-80
2022/09/13 09:13:59;;;;;;;16.55;11.52;;;;;;;19.09;59.87;99802.09;10221244;29;20056;-82
2022/09/13 09:19:13;;;;;;;15.75;10.82;;;;;;;19.44;59.10;99798.47;10217366;29;20059;-80
2022/09/13 09:24:19;;;;;;;19.67;11.63;;;;;;;18.94;60.53;99804.88;10225547;29;20040;-80
2022/09/13 09:29:28;;;;;;;19.98;13.32;;;;;;;19.33;60.50;99798.13;10201477;29;20075;-79
2022/09/13 09:34:44;;;;;;;15.80;11.48;;;;;;;19.49;59.97;99803.31;10212758;29;20040;-79
2022/09/13 09:39:47;;;;;;;19.55;11.93;;;;;;;19.48;60.40;99804.34;10212387;29;20040;-79
2022/09/13 09:44:56;;;;;;;16.80;10.88;;;;;;;19.54;60.93;99797.28;10212499;29;20119;-80
2022/09/13 09:50:09;;;;;;;15.40;12.10;;;;;;;19.38;61.09;99804.66;10221685;29;20517;-79
2022/09/13 09:55:21;;;;;;;15.65;12.18;;;;;;;19.20;62.46;99796.16;10213949;29;20048;-79
2022/09/13 10:00:28;;;;;;;16.95;10.68;;;;;;;19.00;63.42;99804.94;10204658;29;20082;-79
2022/09/13 10:05:32;;;;;;;17.73;11.23;;;;;;;19.72;61.19;99800.38;10179633;29;20052;-78
2022/09/13 10:10:38;;;;;;;13.30;9.85;;;;;;;20.05;61.54;99795.16;10205279;29;20073;-80
2022/09/13 10:15:53;;;;;;;12.48;10.02;;;;;;;20.13;61.04;99786.81;10197603;29;20553;-78
2022/09/13 10:21:05;;;;;;;14.18;9.77;;;;;;;20.60;60.44;99797.09;10204041;29;20079;-82
2022/09/13 10:26:11;;;;;;;14.13;9.85;;;;;;;20.30;61.51;99800.13;10210785;29;20118;-80
2022/09/13 10:31:17;;;;;;;10.77;9.68;;;;;;;20.95;60.47;99790.53;10212431;29;20059;-79
2022/09/13 10:36:24;;;;;;;11.50;9.10;;;;;;;21.07;59.69;99787.22;10189017;29;20091;-79
2022/09/13 10:41:51;;;;;;;12.23;8.93;;;;;;;22.21;57.36;99784.19;10218984;29;20056;-79
2022/09/13 10:46:57;;;;;;;12.57;9.10;;;;;;;22.45;56.17;99781.81;10205709;29;20048;-80
2022/09/13 10:52:00;;;;;;;16.65;9.50;;;;;;;21.68;57.60;99776.91;10213280;29;20048;-80
2022/09/13 10:57:32;;;;;;;10.32;7.45;;;;;;;21.72;53.41;99777.34;10204883;29;20486;-78
2022/09/13 11:02:54;;;;;;;11.57;8.45;;;;;;;22.27;56.27;99769.66;10198494;29;20126;-78
2022/09/13 11:08:26;;;;;;;14.40;9.90;;;;;;;21.80;57.34;99774.44;11377550;23;20048;-78
2022/09/13 11:13:39;;;;;;;15.70;10.88;;;;;;;21.63;57.88;99778.59;10138457;29;20148;-82
2022/09/13 11:19:30;;;;;;;10.77;7.78;;;;;;;21.10;59.17;99778.59;10129259;29;20081;-80
2022/09/13 11:24:44;;;;;;;12.13;9.98;;;;;;;20.79;61.09;99790.91;10132654;29;20113;-78
2022/09/13 11:30:04;;;;;;;10.75;9.25;;;;;;;20.65;60.85;99778.22;10135061;29;20045;-78
2022/09/13 11:35:33;;;;;;;12.90;9.57;;;;;;;20.78;61.71;99787.31;10140992;29;20104;-79
2022/09/13 11:40:46;;;;;;;13.02;9.80;;;;;;;20.85;61.43;99794.69;10146038;29;20045;-79
2022/09/13 11:45:59;;;;;;;15.27;11.00;;;;;;;20.20;63.33;99784.09;10109625;29;20041;-78
2022/09/13 11:51:11;;;;;;;15.88;10.50;;;;;;;20.10;63.31;99784.50;10113700;29;20049;-79
2022/09/13 11:56:23;;;;;;;14.15;10.63;;;;;;;20.41;63.18;99772.28;10113225;29;20037;-79
2022/09/13 12:01:30;;;;;;;14.95;10.25;;;;;;;20.67;62.17;99770.69;10131909;29;20053;-79
2022/09/13 12:06:39;;;;;;;12.98;10.60;;;;;;;20.58;63.18;99780.13;10131205;29;20048;-80
2022/09/13 12:11:45;;;;;;;12.18;8.48;;;;;;;21.01;62.05;99776.03;10128751;29;20589;-79
2022/09/13 12:16:50;;;;;;;12.70;8.77;;;;;;;21.26;61.80;99764.53;10138410;29;20450;-79
2022/09/13 12:21:58;;;;;;;8.85;7.72;;;;;;;20.75;62.83;99768.63;10120629;29;20108;-78
2022/09/13 12:27:07;;;;;;;9.60;8.23;;;;;;;20.93;61.38;99764.47;10132690;29;20837;-79
2022/09/13 12:32:10;;;;;;;11.23;8.70;;;;;;;20.01;63.95;99757.59;10133650;29;20072;-79
2022/09/13 12:37:38;;;;;;;11.85;8.70;;;;;;;19.99;64.47;99757.78;10147939;29;20048;-80
2022/09/13 12:43:28;;;;;;;8.80;7.60;;;;;;;20.45;63.15;99749.00;10139310;29;20498;-79
2022/09/13 12:49:16;;;;;;;13.15;7.97;;;;;;;20.17;64.00;99745.50;10119462;29;20071;-78
2022/09/13 12:54:49;;;;;;;10.85;8.60;;;;;;;20.65;62.39;99753.69;10142851;29;20041;-79
2022/09/13 13:00:10;;;;;;;11.85;9.25;;;;;;;21.27;60.87;99751.72;10139337;29;20053;-80
2022/09/13 13:05:23;;;;;;;9.93;8.80;;;;;;;21.42;60.54;99736.81;10138588;29;20065;-79
2022/09/13 13:10:32;;;;;;;9.35;8.35;;;;;;;21.65;59.45;99733.59;10129217;29;20052;-79
2022/09/13 13:16:01;;;;;;;11.38;9.10;;;;;;;22.75;56.85;99730.09;10137907;29;20084;-79
2022/09/13 13:21:27;;;;;;;10.02;8.57;;;;;;;23.58;54.12;99727.13;10118139;29;20041;-77
2022/09/13 13:26:48;;;;;;;7.85;6.50;;;;;;;25.06;49.10;99724.28;10116064;29;20421;-77
2022/09/13 13:32:10;;;;;;;8.77;7.93;;;;;;;22.78;54.63;99730.47;10109220;29;20053;-78
2022/09/13 13:37:35;;;;;;;9.65;7.15;;;;;;;23.26;54.47;99725.53;10099142;29;20135;-78
2022/09/13 13:42:39;;;;;;;9.48;5.90;;;;;;;22.14;57.25;99723.22;10129447;29;20494;-76
2022/09/13 13:48:14;;;;;;;5.72;4.85;;;;;;;22.82;56.68;99736.38;10101645;29;20124;-79
2022/09/13 13:53:22;;;;;;;8.52;5.13;;;;;;;23.06;56.10;99714.69;10128317;29;20045;-78
2022/09/13 13:58:33;;;;;;;6.80;5.43;;;;;;;24.32;51.62;99716.19;10107359;29;20495;-79
2022/09/13 14:03:51;;;;;;;5.30;4.82;;;;;;;24.22;51.78;99714.00;10114496;29;20076;-78
2022/09/13 14:14:47;;;;;;;6.18;5.57;;;;;;;22.87;55.01;99724.75;10549880;23;20282;-77
2022/09/13 14:19:52;;;;;;;7.43;5.35;;;;;;;22.78;55.52;99724.16;10185841;29;20137;-77
2022/09/13 14:24:57;;;;;;;6.75;6.03;;;;;;;22.45;56.50;99725.19;10215070;23;20040;-75
2022/09/13 14:30:03;;;;;;;6.80;5.60;;;;;;;23.59;54.26;99714.28;10147424;29;20052;-75
2022/09/13 14:35:24;;;;;;;7.07;4.18;;;;;;;25.17;49.59;99704.22;10158719;29;20520;-77
2022/09/13 14:40:27;;;;;;;4.25;3.90;;;;;;;24.72;50.07;99707.44;10184869;29;20410;-76
2022/09/13 14:45:37;;;;;;;5.40;4.60;;;;;;;25.01;48.87;99700.22;10197993;29;20048;-77
2022/09/13 14:50:45;;;;;;;4.03;3.65;;;;;;;25.33;48.18;99689.78;10200255;29;20047;-76
2022/09/13 14:55:52;;;;;;;5.88;3.78;;;;;;;25.44;48.33;99690.88;10181777;29;20040;-79
2022/09/13 15:01:00;;;;;;;3.80;3.10;;;;;;;25.10;48.69;99695.28;10183296;29;20036;-77
2022/09/13 15:06:05;;;;;;;4.93;3.35;;;;;;;23.72;51.44;99694.09;10189800;29;20047;-77
2022/09/13 15:11:14;;;;;;;4.28;2.85;;;;;;;25.17;47.59;99669.34;10180957;29;20503;-77
2022/09/13 15:16:30;;;;;;;1.95;1.83;;;;;;;26.40;45.23;99676.72;10193754;29;20584;-76
2022/09/13 15:21:36;;;;;;;1.60;1.05;;;;;;;24.97;47.02;99680.63;10201950;29;20051;-76
2022/09/13 15:26:38;;;;;;;2.17;1.63;;;;;;;23.84;48.88;99675.88;10183054;29;20043;-77
2022/09/13 15:31:42;;;;;;;1.95;0.90;;;;;;;23.38;50.18;99677.16;10173932;29;20050;-77
2022/09/13 15:36:48;;;;;;;2.63;1.10;;;;;;;22.99;50.26;99681.91;10143340;29;20048;-77
2022/09/13 15:41:53;;;;;;;3.28;0.88;;;;;;;24.43;45.97;99668.78;10152005;29;20509;-77
2022/09/13 15:47:01;;;;;;;1.88;0.90;;;;;;;25.29;44.14;99665.78;10138003;29;20094;-77
2022/09/13 15:52:05;;;;;;;2.88;0.65;;;;;;;24.21;45.90;99678.56;10153534;29;20052;-77
2022/09/13 15:57:13;;;;;;;1.17;0.75;;;;;;;24.03;46.06;99673.97;10162077;29;20052;-76
2022/09/13 16:02:20;;;;;;;1.60;1.00;;;;;;;23.00;48.63;99686.31;10150027;29;20135;-76
2022/09/13 16:07:25;;;;;;;1.10;0.70;;;;;;;22.88;50.06;99693.56;10131098;29;20079;-74
2022/09/13 16:12:28;;;;;;;1.33;0.70;;;;;;;23.24;49.50;99689.31;10149416;29;20654;-76
2022/09/13 16:17:32;;;;;;;2.17;0.77;;;;;;;23.39;49.00;99679.69;10151655;29;20509;-75
2022/09/13 16:22:35;;;;;;;1.67;0.90;;;;;;;23.83;48.17;99664.06;10167402;29;20060;-77
2022/09/13 16:27:38;;;;;;;2.65;0.95;;;;;;;23.21;48.76;99669.53;10159287;29;20074;-77
2022/09/13 16:32:43;;;;;;;2.17;0.98;;;;;;;22.66;50.01;99666.56;10166060;29;20055;-76
2022/09/13 16:37:50;;;;;;;3.20;0.95;;;;;;;22.53;50.67;99672.94;10164990;29;20048;-75
2022/09/13 16:42:53;;;;;;;3.00;1.10;;;;;;;22.60;50.55;99675.66;10150323;29;20077;-76
2022/09/13 16:47:58;;;;;;;1.42;0.90;;;;;;;22.32;51.26;99671.38;10151207;29;20096;-75
2022/09/13 17:00:02;;;;;;;1.05;0.90;;;;;;;22.03;52.12;99650.91;10161793;29;20051;-76
2022/09/13 17:05:07;;;;;;;1.33;0.80;;;;;;;21.70;52.75;99656.47;10189830;29;20039;-76
2022/09/13 17:10:11;;;;;;;1.17;1.08;;;;;;;21.49;53.61;99665.75;10197315;29;20409;-76
2022/09/13 17:15:14;;;;;;;3.47;1.10;;;;;;;21.34;54.25;99667.91;10200244;29;20053;-76
2022/09/13 17:20:19;;;;;;;3.42;1.10;;;;;;;21.10;54.79;99683.03;10184767;29;20151;-76
2022/09/13 17:25:22;;;;;;;6.13;1.33;;;;;;;20.84;54.85;99683.81;10186665;29;20063;-75
2022/09/13 17:30:24;;;;;;;2.20;0.90;;;;;;;20.60;54.41;99677.06;10174495;29;20529;-76
2022/09/13 17:35:28;;;;;;;3.08;0.93;;;;;;;20.36;54.07;99682.06;10147307;29;20059;-76
2022/09/13 17:40:32;;;;;;;1.48;0.70;;;;;;;20.12;54.59;99699.75;10148697;29;20070;-75
2022/09/13 17:45:36;;;;;;;4.55;1.30;;;;;;;19.97;54.59;99705.38;10125931;29;21073;-75
2022/09/13 17:50:40;;;;;;;1.80;1.02;;;;;;;19.81;55.07;99700.25;10152380;29;20056;-75
2022/09/13 17:55:47;;;;;;;2.78;1.08;;;;;;;19.65;55.70;99702.25;10159886;29;20079;-76
2022/09/13 18:01:50;;;;;;;3.95;0.90;;;;;;;19.53;55.94;99709.28;11372599;23;20051;-77
2022/09/13 18:13:55;;;;;;;2.90;0.98;;;;;;;19.17;56.34;99715.72;10189012;29;20043;-78
2022/09/13 18:18:59;;;;;;;5.43;1.10;;;;;;;19.11;56.03;99719.19;10195080;29;20507;-77
2022/09/13 18:24:02;;;;;;;1.35;0.80;;;;;;;19.01;56.46;99710.56;10182130;29;20537;-76
2022/09/13 18:29:09;;;;;;;1.70;0.73;;;;;;;18.97;56.45;99720.13;10204989;29;20035;-80
2022/09/13 18:34:14;;;;;;;3.83;1.10;;;;;;;18.83;56.90;99710.16;10219673;29;20106;-78
2022/09/13 18:39:20;;;;;;;6.93;1.23;;;;;;;18.71;56.77;99713.38;10207518;29;20052;-80
2022/09/13 18:44:24;;;;;;;3.80;0.90;;;;;;;18.64;56.87;99719.78;10197660;29;20048;-78
2022/09/13 18:49:27;;;;;;;3.72;1.00;;;;;;;18.56;56.24;99721.56;10202297;29;20477;-78
2022/09/13 18:54:30;;;;;;;1.55;1.10;;;;;;;18.46;56.32;99723.78;10204469;29;20139;-78
2022/09/13 18:59:34;;;;;;;6.07;1.42;;;;;;;18.45;56.46;99724.78;10190452;29;20651;-79
2022/09/13 19:04:37;;;;;;;2.30;0.90;;;;;;;18.43;56.41;99731.44;10202584;29;20035;-79
2022/09/13 19:09:40;;;;;;;1.80;1.08;;;;;;;18.39;56.14;99730.16;10218729;29;20473;-80
2022/09/13 19:14:44;;;;;;;6.47;1.25;;;;;;;18.24;56.27;99735.63;10189059;29;20051;-80
2022/09/13 19:19:47;;;;;;;2.25;1.10;;;;;;;18.17;56.28;99745.59;10174672;29;20051;-78
2022/09/13 19:24:51;;;;;;;4.75;1.40;;;;;;;18.13;56.77;99735.09;10175801;29;20128;-80
2022/09/13 19:29:55;;;;;;;2.05;1.15;;;;;;;18.04;56.86;99735.38;10175528;29;20805;-80
2022/09/13 19:34:58;;;;;;;2.95;1.10;;;;;;;17.98;56.53;99741.56;10175880;29;20040;-79
2022/09/13 19:40:02;;;;;;;2.78;1.20;;;;;;;17.71;57.40;99749.28;10194484;29;20131;-79
2022/09/13 19:45:08;;;;;;;3.75;1.00;;;;;;;17.57;57.26;99745.53;10200052;29;20048;-79
2022/09/13 19:50:11;;;;;;;6.50;1.20;;;;;;;17.37;57.72;99744.41;10191882;29;20048;-79
2022/09/13 19:55:14;;;;;;;4.68;1.17;;;;;;;17.34;57.92;99742.88;10213266;29;20052;-79
2022/09/13 20:00:18;;;;;;;5.57;1.10;;;;;;;17.23;58.23;99752.31;10209034;29;20440;-79
2022/09/13 20:05:21;;;;;;;4.68;1.10;;;;;;;17.17;58.28;99749.50;10211774;29;20410;-79
2022/09/13 20:10:30;;;;;;;5.10;1.20;;;;;;;17.07;58.37;99749.69;10228528;29;20095;-80
2022/09/13 20:15:34;;;;;;;5.72;1.25;;;;;;;17.01;58.86;99748.56;10191069;29;20048;-78
2022/09/13 20:20:40;;;;;;;6.70;1.40;;;;;;;16.94;59.07;99760.31;10199003;29;20096;-79
2022/09/13 20:25:43;;;;;;;6.50;1.05;;;;;;;16.89;59.03;99751.88;10208507;29;20071;-79
2022/09/13 20:30:53;;;;;;;9.98;2.03;;;;;;;16.84;59.18;99754.28;10210368;29;20071;-79
2022/09/13 20:35:57;;;;;;;3.72;1.48;;;;;;;16.78;59.41;99761.28;10182806;29;20091;-79
2022/09/13 20:41:04;;;;;;;9.13;1.30;;;;;;;16.90;59.23;99759.00;10181517;29;20070;-78
2022/09/13 20:46:11;;;;;;;5.72;1.10;;;;;;;16.81;59.35;99748.22;10181266;29;20048;-79
2022/09/13 20:51:16;;;;;;;5.65;1.48;;;;;;;16.73;59.00;99760.97;10180103;29;20123;-79
2022/09/13 20:56:19;;;;;;;5.45;1.08;;;;;;;16.67;59.45;99751.69;10189678;29;20047;-79
2022/09/13 21:01:23;;;;;;;8.20;1.75;;;;;;;16.67;59.72;99753.56;10203135;29;20044;-79
2022/09/13 21:06:28;;;;;;;5.78;1.20;;;;;;;16.65;59.57;99750.16;10197568;29;20414;-79
2022/09/13 21:11:33;;;;;;;7.75;1.20;;;;;;;16.66;59.52;99746.44;10200902;29;20115;-78
2022/09/13 21:16:40;;;;;;;8.27;1.40;;;;;;;16.68;59.88;99739.81;10200116;29;20052;-79
2022/09/13 21:21:43;;;;;;;6.90;1.50;;;;;;;16.70;59.99;99745.06;10182728;29;20070;-78
2022/09/13 21:26:46;;;;;;;5.07;1.15;;;;;;;16.68;59.92;99750.69;10181903;29;20536;-80
2022/09/13 21:31:50;;;;;;;11.10;1.58;;;;;;;16.65;59.91;99742.91;10181483;29;20494;-78
2022/09/13 21:36:53;;;;;;;9.60;1.50;;;;;;;16.52;60.04;99738.06;10180913;29;20052;-79
2022/09/13 21:41:56;;;;;;;9.30;1.50;;;;;;;16.42;60.33;99750.16;10194380;29;20048;-79
2022/09/13 21:47:00;;;;;;;4.97;1.13;;;;;;;16.43;60.60;99746.41;10196835;29;20082;-79
2022/09/13 21:52:03;;;;;;;10.13;1.70;;;;;;;16.33;60.59;99744.78;10203698;29;20461;-80
2022/09/13 21:57:06;;;;;;;6.32;1.40;;;;;;;16.24;60.99;99743.09;10214026;29;20450;-79
2022/09/13 22:02:10;;;;;;;9.82;1.63;;;;;;;16.20;61.51;99740.91;10204797;29;20508;-80
2022/09/13 22:07:13;;;;;;;5.60;1.30;;;;;;;16.12;61.08;99739.06;10212557;29;20078;-78
2022/09/13 22:12:16;;;;;;;7.10;1.27;;;;;;;16.10;61.06;99743.84;10230693;29;20056;-79
2022/09/13 22:17:20;;;;;;;4.93;1.20;;;;;;;16.10;61.04;99741.97;10199244;29;20040;-79
2022/09/13 22:22:23;;;;;;;5.78;1.20;;;;;;;16.09;60.95;99737.56;10212818;29;20486;-79
2022/09/13 22:27:25;;;;;;;5.60;1.25;;;;;;;16.07;60.61;99738.75;10203919;29;20556;-79
2022/09/13 22:32:30;;;;;;;7.40;1.30;;;;;;;16.08;60.06;99738.59;10178013;29;20079;-80
2022/09/13 22:37:32;;;;;;;4.78;1.00;;;;;;;16.11;59.85;99724.69;10177905;29;20454;-79
2022/09/13 22:42:35;;;;;;;5.53;1.00;;;;;;;16.08;60.06;99716.09;10178086;29;20126;-79
2022/09/13 22:47:39;;;;;;;4.15;1.05;;;;;;;16.01;60.49;99715.94;10178285;29;20083;-78
2022/09/13 22:52:42;;;;;;;5.82;1.30;;;;;;;15.92;60.69;99730.53;10189680;29;20040;-78
2022/09/13 22:57:45;;;;;;;6.18;1.50;;;;;;;15.97;60.86;99730.00;10203980;29;20060;-80
2022/09/13 23:02:49;;;;;;;6.13;1.40;;;;;;;15.94;61.18;99717.66;10205906;29;20119;-79
2022/09/13 23:07:52;;;;;;;4.10;1.02;;;;;;;15.94;60.95;99712.25;10204399;29;20118;-79
2022/09/13 23:12:56;;;;;;;5.35;1.55;;;;;;;15.86;61.34;99707.69;10205448;29;20582;-78
2022/09/13 23:18:00;;;;;;;4.72;1.65;;;;;;;15.77;61.33;99718.72;10203631;29;20206;-79
2022/09/13 23:23:04;;;;;;;5.28;1.30;;;;;;;15.66;61.37;99712.69;10201174;29;20048;-78
2022/09/13 23:28:07;;;;;;;6.72;1.17;;;;;;;15.58;61.77;99703.75;10207897;29;20119;-78
2022/09/13 23:33:11;;;;;;;5.00;1.20;;;;;;;15.55;61.83;99693.25;10200278;29;20083;-78
2022/09/13 23:38:14;;;;;;;7.85;1.20;;;;;;;15.44;62.29;99703.44;10197224;29;20039;-78
2022/09/13 23:43:16;;;;;;;4.88;1.17;;;;;;;15.40;62.34;99699.38;10200129;29;20075;-79
2022/09/13 23:48:21;;;;;;;5.43;1.15;;;;;;;15.38;62.21;99700.56;10200213;29;20051;-78
2022/09/13 23:53:24;;;;;;;5.53;1.50;;;;;;;15.03;62.86;99702.63;10185372;29;20079;-78
2022/09/13 23:58:28;;;;;;;8.32;1.30;;;;;;;14.96;63.26;99688.06;10200955;29;20395;-78
